Time;durP1;ratioP1;P1;durP2;ratioP2;P2;SDS_P1;SDS_P2;PMS_P1;PMS_P2;Temp;Humidity;BMP_temperature;BMP_pressure;BME280_temperature;BME280_humidity;BME280_pressure;Samples;Min_cycle;Max_cycle;Signal;HPM_P1;HPM_P2
2022/01/30 00:02:02;;;;;;;6.53;5.83;;;10.20;80.80;;;;;;4920394;29;20492;-61
2022/01/30 00:04:40;;;;;;;8.70;6.13;;;10.10;80.90;;;;;;4914225;29;20489;-60
2022/01/30 00:07:11;;;;;;;5.93;4.85;;;10.00;82.20;;;;;;4924755;29;20458;-59
2022/01/30 00:09:41;;;;;;;5.67;5.07;;;9.80;82.70;;;;;;4920826;29;20211;-58
2022/01/30 00:12:16;;;;;;;6.40;5.80;;;9.80;82.90;;;;;;4924751;29;20841;-60
2022/01/30 00:14:53;;;;;;;9.40;6.45;;;9.70;82.80;;;;;;4911913;29;20459;-61
2022/01/30 00:17:30;;;;;;;6.63;5.70;;;9.60;83.10;;;;;;4926625;29;20197;-60
2022/01/30 00:20:04;;;;;;;6.43;5.70;;;9.50;84.00;;;;;;4915707;29;20218;-60
2022/01/30 00:22:46;;;;;;;8.52;5.82;;;9.40;85.70;;;;;;4910809;29;20248;-61
2022/01/30 00:25:31;;;;;;;6.40;5.80;;;9.30;85.50;;;;;;4917581;29;20235;-61
2022/01/30 00:28:08;;;;;;;9.27;6.38;;;9.30;90.40;;;;;;4912589;29;20218;-60
2022/01/30 00:30:40;;;;;;;8.57;6.53;;;9.30;91.50;;;;;;4924969;29;20206;-60
2022/01/30 00:33:11;;;;;;;10.05;7.38;;;9.10;89.50;;;;;;4912063;29;20210;-60
2022/01/30 00:35:42;;;;;;;8.65;7.40;;;9.00;88.00;;;;;;4921207;29;20237;-61
2022/01/30 00:38:18;;;;;;;10.85;8.32;;;8.90;87.50;;;;;;4918974;29;20203;-60
2022/01/30 00:40:50;;;;;;;6.28;5.68;;;8.80;89.00;;;;;;4926559;29;20270;-60
2022/01/30 00:43:23;;;;;;;9.70;7.15;;;8.60;88.60;;;;;;4925080;29;20258;-61
2022/01/30 00:45:54;;;;;;;7.72;6.60;;;8.50;88.70;;;;;;4928878;29;20214;-60
2022/01/30 00:48:28;;;;;;;8.90;6.28;;;8.40;89.10;;;;;;4927890;29;20198;-60
2022/01/30 00:50:59;;;;;;;9.20;6.63;;;8.30;89.30;;;;;;4925470;29;20542;-59
2022/01/30 00:53:34;;;;;;;9.45;7.60;;;8.20;88.90;;;;;;4916545;29;20282;-60
2022/01/30 00:56:07;;;;;;;9.40;6.70;;;8.10;89.80;;;;;;4927075;29;20207;-60
2022/01/30 00:58:42;;;;;;;7.78;6.43;;;8.00;90.00;;;;;;4921777;29;20217;-61
2022/01/30 01:01:16;;;;;;;8.50;6.38;;;7.90;90.20;;;;;;4918310;29;20293;-61
2022/01/30 01:03:47;;;;;;;7.25;6.45;;;7.80;90.60;;;;;;4922616;29;20210;-61
2022/01/30 01:06:18;;;;;;;6.13;5.53;;;7.70;90.80;;;;;;4927367;29;20202;-61
2022/01/30 01:08:52;;;;;;;7.53;6.10;;;7.70;90.70;;;;;;4914899;29;20211;-61
2022/01/30 01:25:26;;;;;;;6.90;5.65;;;7.20;92.40;;;;;;4917225;29;20568;-60
2022/01/30 01:27:58;;;;;;;10.25;6.43;;;7.10;92.20;;;;;;4911158;29;20205;-61
2022/01/30 01:30:30;;;;;;;8.00;5.65;;;7.00;92.10;;;;;;4924416;29;20279;-61
2022/01/30 01:33:03;;;;;;;7.00;5.53;;;6.90;92.40;;;;;;4922351;29;20206;-60
2022/01/30 01:35:34;;;;;;;6.47;5.78;;;6.80;92.70;;;;;;4910079;29;20215;-61
2022/01/30 01:38:10;;;;;;;8.55;6.45;;;6.70;93.10;;;;;;4924825;29;20217;-61
2022/01/30 01:40:42;;;;;;;7.13;5.95;;;6.70;93.30;;;;;;4927740;29;20267;-61
2022/01/30 01:43:13;;;;;;;9.43;5.65;;;6.60;93.50;;;;;;4928012;29;20286;-61
2022/01/30 01:45:48;;;;;;;7.50;6.20;;;6.60;93.30;;;;;;4915637;29;20254;-60
2022/01/30 01:48:19;;;;;;;7.80;6.00;;;6.60;94.00;;;;;;4910732;29;20309;-61
2022/01/30 01:50:54;;;;;;;8.95;7.25;;;6.50;94.00;;;;;;4913523;29;20210;-60
2022/01/30 01:53:26;;;;;;;8.63;7.13;;;6.40;94.20;;;;;;4920940;29;20228;-61
2022/01/30 01:55:57;;;;;;;9.73;6.97;;;6.40;94.20;;;;;;4919401;29;20211;-61
2022/01/30 01:58:29;;;;;;;7.57;6.35;;;6.30;94.70;;;;;;4922711;29;20237;-61
2022/01/30 02:01:04;;;;;;;8.48;7.00;;;6.30;96.50;;;;;;4918874;29;20298;-60
2022/01/30 02:03:38;;;;;;;8.93;6.75;;;6.30;96.00;;;;;;4922094;29;20230;-61
2022/01/30 02:06:13;;;;;;;8.35;6.80;;;6.10;95.50;;;;;;4926636;29;20206;-62
2022/01/30 02:08:48;;;;;;;8.95;6.28;;;6.00;95.70;;;;;;4921698;29;20714;-61
2022/01/30 02:11:30;;;;;;;9.55;6.75;;;6.00;95.60;;;;;;4917409;29;20262;-61
2022/01/30 02:14:21;;;;;;;7.68;5.97;;;5.90;96.00;;;;;;4916014;29;20207;-61
2022/01/30 02:25:36;;;;;;;9.35;6.97;;;5.80;96.60;;;;;;4924406;29;20201;-61
2022/01/30 02:28:12;;;;;;;8.45;5.82;;;5.70;96.70;;;;;;4921169;29;20218;-61
2022/01/30 02:30:49;;;;;;;9.38;6.93;;;5.80;97.00;;;;;;4923933;29;20229;-61
2022/01/30 02:33:23;;;;;;;9.60;6.85;;;5.70;97.10;;;;;;4915544;29;20211;-62
2022/01/30 02:35:54;;;;;;;8.35;6.35;;;5.70;97.20;;;;;;4916580;29;20221;-61
2022/01/30 02:38:27;;;;;;;7.30;6.40;;;5.60;97.20;;;;;;4911728;29;20291;-61
2022/01/30 02:40:58;;;;;;;9.02;7.00;;;5.60;97.20;;;;;;4922610;29;20206;-61
2022/01/30 02:43:33;;;;;;;9.00;6.82;;;5.60;97.70;;;;;;4914617;29;20211;-63
2022/01/30 02:46:11;;;;;;;10.68;7.57;;;5.50;97.90;;;;;;4921468;29;20218;-64
2022/01/30 02:48:50;;;;;;;8.73;7.00;;;5.50;97.60;;;;;;4920985;29;20536;-64
2022/01/30 02:51:23;;;;;;;8.70;7.18;;;5.50;97.80;;;;;;4910081;29;20241;-62
2022/01/30 02:54:03;;;;;;;10.90;7.60;;;5.50;98.10;;;;;;4909121;29;20215;-64
2022/01/30 02:56:35;;;;;;;9.30;7.90;;;5.40;98.60;;;;;;4922490;29;20212;-63
2022/01/30 02:59:06;;;;;;;11.38;8.38;;;5.30;99.50;;;;;;4915359;29;20187;-61
2022/01/30 03:01:37;;;;;;;9.88;6.97;;;5.20;99.90;;;;;;4913235;29;20201;-62
2022/01/30 03:04:08;;;;;;;9.20;7.57;;;5.20;99.90;;;;;;4925288;29;20254;-62
2022/01/30 03:06:39;;;;;;;9.93;7.38;;;5.20;99.90;;;;;;4923475;29;20203;-61
2022/01/30 03:09:12;;;;;;;8.40;7.45;;;5.10;99.90;;;;;;4923384;29;20294;-62
2022/01/30 03:11:46;;;;;;;8.77;7.22;;;5.00;99.90;;;;;;4929057;29;20214;-62
2022/01/30 03:14:17;;;;;;;9.48;7.03;;;5.00;99.90;;;;;;4921867;29;20590;-62
2022/01/30 03:16:48;;;;;;;10.45;7.40;;;4.90;99.90;;;;;;4927425;29;20194;-62
2022/01/30 03:19:19;;;;;;;10.70;7.65;;;4.80;99.90;;;;;;4927785;29;20229;-62
2022/01/30 03:21:50;;;;;;;10.52;7.47;;;4.70;99.90;;;;;;4924135;29;20217;-62
2022/01/30 03:24:25;;;;;;;9.15;7.13;;;4.60;99.90;;;;;;4916888;29;20253;-63
2022/01/30 03:26:56;;;;;;;11.00;7.57;;;4.60;99.90;;;;;;4917861;29;20569;-62
2022/01/30 03:29:27;;;;;;;9.73;7.72;;;4.60;99.90;;;;;;4924511;29;20202;-63
2022/01/30 03:31:58;;;;;;;10.75;8.23;;;4.50;99.90;;;;;;4915581;29;20200;-62
2022/01/30 03:34:29;;;;;;;12.48;8.90;;;4.50;99.90;;;;;;4923728;29;20644;-62
2022/01/30 03:37:00;;;;;;;12.73;9.90;;;4.50;99.90;;;;;;4915273;29;20306;-63
2022/01/30 03:39:32;;;;;;;10.25;9.18;;;4.40;99.90;;;;;;4913463;29;20302;-62
2022/01/30 03:42:03;;;;;;;13.77;11.45;;;4.40;99.90;;;;;;4929332;29;20207;-62
2022/01/30 03:44:34;;;;;;;12.00;8.98;;;4.40;99.90;;;;;;4923684;29;20219;-62
2022/01/30 03:47:05;;;;;;;15.90;11.25;;;4.30;99.90;;;;;;4918304;29;20530;-61
2022/01/30 03:49:36;;;;;;;18.17;10.80;;;4.30;99.90;;;;;;4917732;29;20204;-62
2022/01/30 03:52:08;;;;;;;17.45;12.00;;;4.20;99.90;;;;;;4914271;29;20363;-62
2022/01/30 03:54:41;;;;;;;17.10;12.07;;;4.10;99.90;;;;;;4920212;29;20305;-62
2022/01/30 03:57:11;;;;;;;14.10;11.15;;;3.90;99.90;;;;;;4923299;29;20250;-62
2022/01/30 03:59:42;;;;;;;13.43;10.80;;;3.90;99.90;;;;;;4911337;29;20206;-62
2022/01/30 04:02:13;;;;;;;12.63;10.55;;;3.90;99.90;;;;;;4923252;29;20689;-62
2022/01/30 04:04:44;;;;;;;13.63;11.43;;;3.80;99.90;;;;;;4922194;29;20253;-62
2022/01/30 04:07:15;;;;;;;14.05;10.88;;;3.80;99.90;;;;;;4924611;29;20203;-61
2022/01/30 04:09:48;;;;;;;13.05;10.40;;;3.90;99.90;;;;;;4929510;29;20225;-62
2022/01/30 04:12:20;;;;;;;12.48;9.90;;;4.00;99.90;;;;;;4916776;29;21240;-62
2022/01/30 04:14:51;;;;;;;14.10;10.52;;;3.80;99.90;;;;;;4915060;29;20192;-62
2022/01/30 04:17:23;;;;;;;10.98;8.82;;;3.80;99.90;;;;;;4915838;29;20218;-61
2022/01/30 04:19:54;;;;;;;10.98;9.40;;;3.70;99.90;;;;;;4914228;29;20218;-62
2022/01/30 04:22:25;;;;;;;11.43;9.77;;;3.70;99.90;;;;;;4923786;29;20622;-62
2022/01/30 04:24:57;;;;;;;13.95;9.32;;;3.70;99.90;;;;;;4926751;29;20230;-62
2022/01/30 04:27:28;;;;;;;13.55;9.25;;;3.70;99.90;;;;;;4921958;29;20199;-62
2022/01/30 04:30:00;;;;;;;11.65;9.77;;;3.70;99.90;;;;;;4917430;29;20212;-59
2022/01/30 04:32:33;;;;;;;12.98;9.55;;;3.60;99.90;;;;;;4924621;29;20238;-59
2022/01/30 04:35:11;;;;;;;11.20;9.55;;;3.60;99.90;;;;;;4929327;29;20628;-60
2022/01/30 04:37:55;;;;;;;13.25;10.57;;;3.60;99.90;;;;;;4926983;29;20298;-59
2022/01/30 04:41:00;;;;;;;12.15;9.30;;;3.60;99.90;;;;;;4924525;29;20218;-61
2022/01/30 04:52:25;;;;;;;12.38;8.80;;;3.20;99.90;;;;;;4908650;29;20675;-62
2022/01/30 04:55:45;;;;;;;11.43;8.50;;;3.20;99.90;;;;;;4919007;29;20210;-61
2022/01/30 04:58:18;;;;;;;9.43;8.00;;;3.30;99.90;;;;;;4924908;29;20298;-62
2022/01/30 05:01:01;;;;;;;10.45;8.05;;;3.30;99.90;;;;;;4918641;29;20202;-62
2022/01/30 05:03:51;;;;;;;11.23;8.25;;;3.40;99.90;;;;;;4914617;29;20254;-62
2022/01/30 05:06:32;;;;;;;11.77;8.20;;;3.50;99.90;;;;;;4914280;29;20211;-62
2022/01/30 05:09:04;;;;;;;15.13;9.15;;;3.60;99.90;;;;;;4923308;29;20213;-62
2022/01/30 05:11:35;;;;;;;11.77;8.27;;;3.70;99.90;;;;;;4910590;29;20239;-62
2022/01/30 05:14:09;;;;;;;7.93;6.85;;;3.70;99.90;;;;;;4917086;29;20270;-62
2022/01/30 05:16:40;;;;;;;10.55;8.35;;;3.70;99.90;;;;;;4926050;29;20207;-62
2022/01/30 05:19:12;;;;;;;10.70;7.93;;;3.70;99.90;;;;;;4923132;29;20240;-63
2022/01/30 05:21:44;;;;;;;12.88;7.95;;;3.70;99.90;;;;;;4920015;29;20214;-61
2022/01/30 05:24:16;;;;;;;10.63;7.47;;;3.70;99.90;;;;;;4927165;29;20235;-62
2022/01/30 05:26:48;;;;;;;12.73;8.68;;;3.60;99.90;;;;;;4928053;29;20214;-61
2022/01/30 05:29:21;;;;;;;9.52;8.45;;;3.60;99.90;;;;;;4925834;29;20225;-62
2022/01/30 05:31:52;;;;;;;10.45;8.30;;;3.60;99.90;;;;;;4927404;29;20210;-62
2022/01/30 05:34:23;;;;;;;12.27;8.50;;;3.60;99.90;;;;;;4919863;29;20203;-62
2022/01/30 05:36:57;;;;;;;11.48;9.18;;;3.50;99.90;;;;;;4913049;29;20203;-62
2022/01/30 05:39:29;;;;;;;11.32;8.60;;;3.40;99.90;;;;;;4920923;29;20214;-61
2022/01/30 05:42:00;;;;;;;8.98;7.22;;;3.40;99.90;;;;;;4923537;29;20206;-61
2022/01/30 05:44:43;;;;;;;12.52;8.25;;;3.30;99.90;;;;;;4924943;29;20231;-62
2022/01/30 05:47:23;;;;;;;10.43;8.15;;;3.30;99.90;;;;;;4908824;29;20574;-62
2022/01/30 05:49:54;;;;;;;12.02;8.02;;;3.30;99.90;;;;;;4917318;29;20203;-61
2022/01/30 05:52:25;;;;;;;12.55;8.77;;;3.30;99.90;;;;;;4926794;29;20239;-62
2022/01/30 05:54:56;;;;;;;12.93;8.75;;;3.20;99.90;;;;;;4911597;29;20213;-62
2022/01/30 05:57:28;;;;;;;11.95;8.45;;;3.20;99.90;;;;;;4910541;29;20214;-61
2022/01/30 06:00:00;;;;;;;10.20;8.27;;;3.10;99.90;;;;;;4912436;29;20211;-62
2022/01/30 06:02:31;;;;;;;11.52;8.68;;;3.00;99.90;;;;;;4917541;29;20203;-61
2022/01/30 06:05:02;;;;;;;10.40;8.40;;;2.90;99.90;;;;;;4920516;29;20244;-62
2022/01/30 06:07:35;;;;;;;11.75;8.55;;;2.90;99.90;;;;;;4919505;29;20209;-63
2022/01/30 06:10:08;;;;;;;9.75;8.18;;;2.80;99.90;;;;;;4925892;29;20643;-62
2022/01/30 06:12:39;;;;;;;11.13;8.88;;;2.90;99.90;;;;;;4912979;29;20218;-62
2022/01/30 06:15:13;;;;;;;10.25;8.05;;;2.70;99.90;;;;;;4908733;29;20209;-61
2022/01/30 06:17:44;;;;;;;11.93;8.13;;;2.70;99.90;;;;;;4917397;29;20207;-61
2022/01/30 06:20:15;;;;;;;11.73;8.88;;;2.60;99.90;;;;;;4925461;29;20286;-61
2022/01/30 06:22:46;;;;;;;14.45;8.63;;;2.70;99.90;;;;;;4925114;29;20618;-61
2022/01/30 06:25:17;;;;;;;10.52;7.70;;;2.70;99.90;;;;;;4927077;29;20218;-61
2022/01/30 06:27:48;;;;;;;11.88;8.48;;;2.80;99.90;;;;;;4927283;29;20218;-61
2022/01/30 06:30:21;;;;;;;11.43;8.65;;;2.90;99.90;;;;;;4919445;29;20207;-61
2022/01/30 06:32:52;;;;;;;12.18;9.02;;;2.90;99.90;;;;;;4912818;29;20670;-61
2022/01/30 06:35:23;;;;;;;11.45;7.53;;;3.00;99.90;;;;;;4908565;29;20667;-62
2022/01/30 06:37:54;;;;;;;9.70;7.93;;;3.00;99.90;;;;;;4907700;29;20192;-60
2022/01/30 06:40:25;;;;;;;11.93;7.70;;;3.00;99.90;;;;;;4911247;29;20587;-61
2022/01/30 06:42:56;;;;;;;10.57;7.90;;;3.10;99.90;;;;;;4925688;29;20203;-60
2022/01/30 06:45:29;;;;;;;12.35;8.20;;;2.90;99.90;;;;;;4921540;29;20365;-61
2022/01/30 06:48:00;;;;;;;11.25;8.77;;;2.90;99.90;;;;;;4907987;29;20218;-61
2022/01/30 06:50:31;;;;;;;11.65;8.32;;;2.90;99.90;;;;;;4914753;29;20246;-62
2022/01/30 06:53:02;;;;;;;12.77;8.25;;;2.90;99.90;;;;;;4922895;29;20281;-61
2022/01/30 06:55:33;;;;;;;10.25;7.45;;;3.00;99.90;;;;;;4913910;29;20274;-60
2022/01/30 06:58:04;;;;;;;9.57;8.23;;;3.00;99.90;;;;;;4917916;29;20216;-61
2022/01/30 07:00:36;;;;;;;13.80;8.25;;;3.10;99.90;;;;;;4915127;29;20290;-61
2022/01/30 07:03:07;;;;;;;12.80;8.38;;;3.10;99.90;;;;;;4923328;29;20211;-61
2022/01/30 07:05:38;;;;;;;10.55;7.82;;;3.00;99.90;;;;;;4907762;29;20241;-61
2022/01/30 07:08:09;;;;;;;9.85;8.20;;;2.90;99.90;;;;;;4925376;29;20258;-61
2022/01/30 07:10:41;;;;;;;12.85;8.02;;;2.90;99.90;;;;;;4914207;29;20735;-61
2022/01/30 07:13:12;;;;;;;11.02;8.30;;;2.90;99.90;;;;;;4909075;29;20226;-61
2022/01/30 07:15:45;;;;;;;11.45;8.15;;;3.00;99.90;;;;;;4911943;29;20210;-61
2022/01/30 07:18:16;;;;;;;9.82;7.57;;;3.00;99.90;;;;;;4924301;29;20271;-61
2022/01/30 07:20:48;;;;;;;12.27;8.45;;;3.00;99.90;;;;;;4923818;29;20214;-61
2022/01/30 07:23:18;;;;;;;12.63;8.43;;;3.10;99.90;;;;;;4925973;29;20639;-61
2022/01/30 07:25:49;;;;;;;12.73;9.15;;;3.00;99.90;;;;;;4922808;29;20294;-61
2022/01/30 07:28:20;;;;;;;10.18;7.75;;;3.00;99.90;;;;;;4910290;29;20211;-61
2022/01/30 07:30:53;;;;;;;14.40;9.80;;;2.80;99.90;;;;;;4915015;29;20341;-61
2022/01/30 07:33:26;;;;;;;11.20;8.85;;;2.70;99.90;;;;;;4924866;29;20213;-61
2022/01/30 07:36:00;;;;;;;10.55;7.57;;;2.80;99.90;;;;;;4908814;29;20207;-61
2022/01/30 07:38:35;;;;;;;12.57;9.32;;;2.70;99.90;;;;;;4908598;29;20200;-61
2022/01/30 07:41:15;;;;;;;11.02;8.20;;;2.60;99.90;;;;;;4922610;29;20234;-61
2022/01/30 07:44:06;;;;;;;13.18;9.23;;;2.60;99.90;;;;;;4915194;29;20274;-61
2022/01/30 07:46:39;;;;;;;11.88;8.35;;;2.60;99.90;;;;;;4919139;29;20237;-61
2022/01/30 07:49:10;;;;;;;12.02;8.77;;;2.50;99.90;;;;;;4926064;29;20217;-59
2022/01/30 07:51:41;;;;;;;11.05;8.13;;;2.40;99.90;;;;;;4908220;29;20253;-60
2022/01/30 07:54:12;;;;;;;16.25;9.77;;;2.40;99.90;;;;;;4919968;29;20377;-59
2022/01/30 07:56:43;;;;;;;13.57;9.38;;;2.50;99.90;;;;;;4928164;29;20198;-61
2022/01/30 07:59:14;;;;;;;14.90;10.20;;;2.30;99.90;;;;;;4926130;29;20211;-61
2022/01/30 08:01:46;;;;;;;12.55;9.95;;;2.30;99.90;;;;;;4918863;29;20308;-60
2022/01/30 08:04:18;;;;;;;14.65;9.50;;;2.30;99.90;;;;;;4920736;29;20215;-60
2022/01/30 08:06:48;;;;;;;13.18;9.10;;;2.30;99.90;;;;;;4920687;29;20304;-61
2022/01/30 08:09:19;;;;;;;13.65;9.38;;;2.30;99.90;;;;;;4924764;29;20340;-60
2022/01/30 08:11:50;;;;;;;11.75;9.00;;;2.20;99.90;;;;;;4927544;29;20211;-60
2022/01/30 08:14:21;;;;;;;13.23;9.70;;;2.20;99.90;;;;;;4925034;29;20295;-60
2022/01/30 08:16:54;;;;;;;14.20;9.60;;;2.20;99.90;;;;;;4920778;29;20210;-60
2022/01/30 08:19:25;;;;;;;12.82;9.57;;;2.20;99.90;;;;;;4928306;29;20214;-61
2022/01/30 08:22:01;;;;;;;13.70;9.50;;;2.30;99.90;;;;;;4926980;29;20341;-60
2022/01/30 08:24:32;;;;;;;10.85;8.95;;;2.20;99.90;;;;;;4919462;29;20278;-60
2022/01/30 08:27:03;;;;;;;13.35;8.80;;;2.20;99.90;;;;;;4924153;29;20227;-60
2022/01/30 08:29:33;;;;;;;13.98;9.75;;;2.10;99.90;;;;;;4928539;29;20206;-61
2022/01/30 08:32:11;;;;;;;16.38;10.20;;;2.10;99.90;;;;;;4926661;29;20211;-60
2022/01/30 08:34:42;;;;;;;16.77;9.90;;;2.10;99.90;;;;;;4917623;29;20213;-60
2022/01/30 08:37:14;;;;;;;14.45;10.05;;;2.10;99.90;;;;;;4919712;29;20277;-60
2022/01/30 08:39:45;;;;;;;14.18;10.32;;;2.10;99.90;;;;;;4922251;29;20199;-60
2022/01/30 08:42:18;;;;;;;11.80;9.13;;;2.10;99.90;;;;;;4927963;29;20214;-60
2022/01/30 08:44:49;;;;;;;14.15;10.38;;;2.20;99.90;;;;;;4918213;29;20258;-60
2022/01/30 08:47:24;;;;;;;14.25;10.68;;;2.20;99.90;;;;;;4909497;29;20299;-61
2022/01/30 08:49:55;;;;;;;14.00;9.18;;;2.30;99.90;;;;;;4920649;29;20363;-60
2022/01/30 08:52:27;;;;;;;13.65;10.23;;;2.30;99.90;;;;;;4919317;29;20234;-60
2022/01/30 08:55:00;;;;;;;17.67;9.90;;;2.30;99.90;;;;;;4918249;29;20208;-60
2022/01/30 08:57:31;;;;;;;12.93;10.40;;;2.30;99.90;;;;;;4916703;29;20619;-60
2022/01/30 09:00:02;;;;;;;14.93;9.77;;;2.40;99.90;;;;;;4926905;29;20554;-60
2022/01/30 09:02:34;;;;;;;12.73;9.88;;;2.40;99.90;;;;;;4917516;29;20202;-60
2022/01/30 09:05:08;;;;;;;12.88;9.55;;;2.50;99.90;;;;;;4927293;29;20203;-60
2022/01/30 09:07:40;;;;;;;14.02;9.77;;;2.50;99.90;;;;;;4918889;29;20230;-61
2022/01/30 09:10:12;;;;;;;13.45;10.50;;;2.50;99.90;;;;;;4925512;29;20282;-61
2022/01/30 09:12:45;;;;;;;10.95;8.90;;;2.60;99.90;;;;;;4913397;29;20232;-61
2022/01/30 09:15:16;;;;;;;13.10;9.57;;;2.70;99.90;;;;;;4924467;29;20268;-61
2022/01/30 09:17:51;;;;;;;13.45;8.75;;;2.70;99.90;;;;;;4918466;29;20313;-61
2022/01/30 09:20:22;;;;;;;10.73;9.18;;;2.70;99.90;;;;;;4927182;29;20210;-61
2022/01/30 09:22:53;;;;;;;12.10;8.50;;;2.80;99.90;;;;;;4919256;29;20296;-60
2022/01/30 09:25:24;;;;;;;10.77;8.00;;;2.90;99.90;;;;;;4911707;29;20594;-60
2022/01/30 09:27:55;;;;;;;9.13;7.75;;;3.00;99.90;;;;;;4910791;29;20219;-61
2022/01/30 09:30:27;;;;;;;10.85;8.38;;;3.10;99.90;;;;;;4911768;29;20617;-60
2022/01/30 09:33:00;;;;;;;10.23;7.65;;;3.20;99.90;;;;;;4913974;29;20226;-60
2022/01/30 09:35:37;;;;;;;15.57;8.73;;;3.30;99.90;;;;;;4927564;29;20313;-60
2022/01/30 09:38:11;;;;;;;10.93;8.18;;;3.40;99.90;;;;;;4913142;29;20210;-60
2022/01/30 09:40:42;;;;;;;11.60;7.65;;;3.40;99.90;;;;;;4909772;29;20233;-59
2022/01/30 09:43:14;;;;;;;12.02;8.23;;;3.40;99.90;;;;;;4912533;29;20239;-59
2022/01/30 09:45:46;;;;;;;11.63;7.35;;;3.50;99.90;;;;;;4908905;29;20294;-59
2022/01/30 09:48:19;;;;;;;11.05;7.85;;;3.50;99.90;;;;;;4908442;29;20301;-59
2022/01/30 09:50:51;;;;;;;11.20;7.40;;;3.60;99.90;;;;;;4918107;29;20203;-60
2022/01/30 09:53:22;;;;;;;8.80;6.88;;;3.60;99.90;;;;;;4920354;29;20221;-59
2022/01/30 09:55:53;;;;;;;10.68;7.15;;;3.70;99.90;;;;;;4916073;29;20277;-59
2022/01/30 09:58:23;;;;;;;11.60;8.77;;;3.70;99.90;;;;;;4909658;29;20196;-60
2022/01/30 10:00:58;;;;;;;9.82;7.70;;;3.70;99.90;;;;;;4909501;29;20211;-60
2022/01/30 10:03:30;;;;;;;10.40;7.32;;;3.70;99.90;;;;;;4908487;29;20207;-59
2022/01/30 10:06:06;;;;;;;10.40;7.93;;;3.70;99.90;;;;;;4909177;29;20662;-59
2022/01/30 10:08:42;;;;;;;10.77;7.60;;;3.80;99.90;;;;;;4926421;29;20269;-59
2022/01/30 10:11:29;;;;;;;10.25;7.47;;;3.90;99.90;;;;;;4908822;29;20294;-59
2022/01/30 10:14:08;;;;;;;7.70;6.90;;;4.00;99.90;;;;;;4918896;29;20198;-59
2022/01/30 10:16:42;;;;;;;9.48;6.95;;;4.00;99.90;;;;;;4907835;29;20293;-60
2022/01/30 10:19:17;;;;;;;11.52;8.40;;;4.00;99.90;;;;;;4910179;29;20314;-60
2022/01/30 10:21:49;;;;;;;12.23;7.75;;;4.00;99.90;;;;;;4922995;29;20412;-60
2022/01/30 10:24:25;;;;;;;8.43;6.32;;;4.00;99.90;;;;;;4926701;29;20221;-60
2022/01/30 10:26:59;;;;;;;9.43;6.45;;;4.00;99.90;;;;;;4916351;29;20624;-59
2022/01/30 10:29:31;;;;;;;10.57;6.70;;;4.00;99.90;;;;;;4924172;29;20313;-59
2022/01/30 10:32:14;;;;;;;10.85;7.78;;;4.00;99.90;;;;;;4923488;29;20198;-59
2022/01/30 10:35:05;;;;;;;10.02;7.20;;;4.00;99.90;;;;;;4926768;29;20226;-59
2022/01/30 10:37:39;;;;;;;11.27;7.82;;;4.10;99.90;;;;;;4925132;29;20211;-59
2022/01/30 10:40:14;;;;;;;8.02;6.88;;;4.10;99.90;;;;;;4927111;29;20213;-60
2022/01/30 10:42:47;;;;;;;9.82;7.05;;;3.90;99.90;;;;;;4922133;29;20289;-59
2022/01/30 10:45:29;;;;;;;10.45;7.78;;;3.90;99.90;;;;;;4916432;29;20214;-60
2022/01/30 10:48:13;;;;;;;12.73;7.22;;;3.90;99.90;;;;;;4912720;29;20628;-59
2022/01/30 10:50:48;;;;;;;11.40;8.20;;;4.00;99.90;;;;;;4916196;29;20221;-60
2022/01/30 10:53:21;;;;;;;10.63;7.60;;;4.10;99.90;;;;;;4920411;29;20202;-59
2022/01/30 10:55:53;;;;;;;8.52;6.82;;;4.20;99.90;;;;;;4926076;29;20198;-60
2022/01/30 10:58:24;;;;;;;10.20;7.30;;;4.10;99.90;;;;;;4926367;29;20221;-59
2022/01/30 11:00:58;;;;;;;9.82;8.00;;;4.20;99.90;;;;;;4923206;29;20207;-60
2022/01/30 11:03:44;;;;;;;9.75;7.07;;;4.10;99.90;;;;;;4916552;29;20212;-59
2022/01/30 11:06:17;;;;;;;11.25;7.45;;;4.10;99.90;;;;;;4925059;29;20293;-59
2022/01/30 11:08:50;;;;;;;8.45;7.05;;;4.10;99.90;;;;;;4924030;29;20233;-59
2022/01/30 11:11:30;;;;;;;12.05;7.70;;;4.10;99.90;;;;;;4918179;29;20595;-60
2022/01/30 11:14:17;;;;;;;9.38;7.38;;;4.10;99.90;;;;;;4916387;29;20215;-60
2022/01/30 11:17:03;;;;;;;11.15;7.00;;;4.00;99.90;;;;;;4922532;29;20269;-59
2022/01/30 11:19:37;;;;;;;10.80;7.63;;;4.00;99.90;;;;;;4926281;29;20225;-59
2022/01/30 11:22:11;;;;;;;11.90;7.47;;;4.10;99.90;;;;;;4916176;29;20210;-59
2022/01/30 11:24:47;;;;;;;9.10;6.95;;;4.10;99.90;;;;;;4922637;29;20210;-59
2022/01/30 11:27:19;;;;;;;10.15;7.65;;;4.20;99.90;;;;;;4908295;29;20227;-59
2022/01/30 11:29:51;;;;;;;10.77;7.15;;;4.10;99.90;;;;;;4911630;29;20192;-59
2022/01/30 11:32:23;;;;;;;10.98;8.23;;;4.00;99.90;;;;;;4925333;29;20237;-60
2022/01/30 11:34:56;;;;;;;8.85;6.75;;;4.10;99.90;;;;;;4927322;29;20228;-60
2022/01/30 11:37:31;;;;;;;13.10;8.25;;;4.00;99.90;;;;;;4928646;29;20272;-59
2022/01/30 11:40:11;;;;;;;10.43;8.23;;;4.20;99.90;;;;;;4929181;29;20202;-60
2022/01/30 11:42:44;;;;;;;8.88;7.20;;;4.20;99.90;;;;;;4929552;29;20202;-60
2022/01/30 11:45:27;;;;;;;11.48;7.95;;;4.20;99.90;;;;;;4929210;29;20281;-61
2022/01/30 11:48:12;;;;;;;9.75;7.15;;;4.10;99.90;;;;;;4929537;29;20219;-61
2022/01/30 11:50:43;;;;;;;7.65;6.78;;;4.00;99.90;;;;;;4929615;29;20213;-60
2022/01/30 11:53:28;;;;;;;11.05;8.55;;;4.00;99.90;;;;;;4921815;29;20278;-60
2022/01/30 11:56:00;;;;;;;10.05;7.80;;;4.10;99.90;;;;;;4926869;29;20211;-59
2022/01/30 11:58:46;;;;;;;14.82;10.25;;;4.00;99.90;;;;;;4929570;29;20214;-60
2022/01/30 12:01:38;;;;;;;26.42;19.27;;;4.00;99.90;;;;;;4914781;29;20214;-60
2022/01/30 12:04:14;;;;;;;21.88;15.40;;;4.20;99.90;;;;;;4924306;29;20226;-60
2022/01/30 12:06:47;;;;;;;18.23;13.55;;;4.20;99.90;;;;;;4915670;29;20201;-60
2022/01/30 12:09:30;;;;;;;12.70;10.70;;;4.20;99.90;;;;;;4926658;29;20218;-60
2022/01/30 12:12:09;;;;;;;15.13;10.38;;;4.20;99.90;;;;;;4924171;29;20201;-60
2022/01/30 12:14:49;;;;;;;13.52;9.77;;;4.10;99.90;;;;;;4924942;29;20207;-61
2022/01/30 12:17:49;;;;;;;11.35;9.63;;;4.10;99.90;;;;;;4922860;29;20202;-60
2022/01/30 12:20:24;;;;;;;11.60;8.40;;;4.00;99.90;;;;;;4910472;29;20211;-61
2022/01/30 12:22:56;;;;;;;11.32;7.97;;;4.00;99.90;;;;;;4909677;29;20245;-60
2022/01/30 12:25:33;;;;;;;10.02;7.10;;;4.00;99.90;;;;;;4910035;29;20265;-60
2022/01/30 12:28:14;;;;;;;12.07;8.40;;;4.00;99.90;;;;;;4916452;29;20302;-60
2022/01/30 12:30:59;;;;;;;9.23;7.00;;;4.10;99.90;;;;;;4923651;29;20643;-60
2022/01/30 12:33:46;;;;;;;7.93;6.45;;;4.10;99.90;;;;;;4922334;29;20203;-60
2022/01/30 12:36:21;;;;;;;7.15;6.15;;;4.20;99.90;;;;;;4918958;29;20211;-61
2022/01/30 12:39:04;;;;;;;11.52;7.90;;;4.10;99.90;;;;;;4910667;29;20222;-61
2022/01/30 12:41:38;;;;;;;9.73;7.43;;;4.10;99.90;;;;;;4928427;29;20207;-60
2022/01/30 12:44:14;;;;;;;10.15;7.57;;;4.00;99.90;;;;;;4921249;29;20657;-61
2022/01/30 12:46:48;;;;;;;10.30;7.43;;;4.10;99.90;;;;;;4915541;29;20214;-60
2022/01/30 12:49:19;;;;;;;10.27;7.80;;;4.20;99.90;;;;;;4919722;29;20235;-62
2022/01/30 12:51:53;;;;;;;7.40;6.00;;;4.20;99.90;;;;;;4926819;29;20227;-60
2022/01/30 12:54:25;;;;;;;9.25;7.43;;;4.10;99.90;;;;;;4926656;29;20307;-60
2022/01/30 12:56:58;;;;;;;8.98;7.03;;;4.20;99.90;;;;;;4917952;29;20677;-60
2022/01/30 12:59:29;;;;;;;8.43;6.78;;;4.20;99.90;;;;;;4915461;29;20623;-60
2022/01/30 13:02:06;;;;;;;9.27;7.30;;;4.20;99.90;;;;;;4923164;29;20214;-60
2022/01/30 13:04:38;;;;;;;10.48;6.60;;;4.20;99.90;;;;;;4921024;29;20279;-60
2022/01/30 13:07:14;;;;;;;9.18;6.35;;;4.20;99.90;;;;;;4916626;29;20226;-61
2022/01/30 13:09:45;;;;;;;9.65;6.90;;;4.30;99.90;;;;;;4924681;29;20229;-60
2022/01/30 13:12:19;;;;;;;9.75;7.03;;;4.30;99.90;;;;;;4914110;29;20655;-61
2022/01/30 13:14:50;;;;;;;9.35;6.93;;;4.30;99.90;;;;;;4908374;29;20217;-61
2022/01/30 13:17:30;;;;;;;10.70;7.30;;;4.30;99.90;;;;;;4925401;29;20207;-61
2022/01/30 13:20:00;;;;;;;13.23;7.97;;;4.30;99.90;;;;;;4924326;29;20224;-60
2022/01/30 13:22:34;;;;;;;10.30;7.10;;;4.40;99.90;;;;;;4920702;29;20211;-60
2022/01/30 13:25:08;;;;;;;7.95;6.82;;;4.40;99.90;;;;;;4925590;29;20209;-60
2022/01/30 13:27:41;;;;;;;9.57;7.03;;;4.60;99.90;;;;;;4928590;29;20269;-60
2022/01/30 13:30:19;;;;;;;9.45;7.45;;;4.40;99.90;;;;;;4926678;29;20213;-60
2022/01/30 13:32:50;;;;;;;9.15;7.10;;;4.30;99.90;;;;;;4909432;29;20282;-60
2022/01/30 13:35:24;;;;;;;11.15;7.18;;;4.30;99.90;;;;;;4911545;29;20214;-60
2022/01/30 13:37:58;;;;;;;8.63;6.95;;;4.30;99.90;;;;;;4920380;29;20202;-60
2022/01/30 13:40:40;;;;;;;10.30;7.57;;;4.30;99.90;;;;;;4910651;29;20608;-60
2022/01/30 13:43:19;;;;;;;9.80;7.07;;;4.40;99.90;;;;;;4917798;29;20190;-60
2022/01/30 13:48:43;;;;;;;11.05;7.50;;;4.40;99.90;;;;;;4927495;29;20233;-60
2022/01/30 13:51:21;;;;;;;10.93;7.80;;;4.40;99.90;;;;;;4925641;29;20230;-60
2022/01/30 13:54:09;;;;;;;9.38;6.50;;;4.30;99.90;;;;;;4916877;29;20207;-60
2022/01/30 13:56:40;;;;;;;8.52;6.80;;;4.30;99.90;;;;;;4921208;29;20221;-60
2022/01/30 13:59:12;;;;;;;7.90;6.55;;;4.30;99.90;;;;;;4910455;29;20267;-60
2022/01/30 14:01:57;;;;;;;10.02;7.38;;;4.20;99.90;;;;;;4912514;29;20211;-59